Time;durP1;ratioP1;P1;durP2;ratioP2;P2;SDS_P1;SDS_P2;PMS_P1;PMS_P2;Temp;Humidity;BMP_temperature;BMP_pressure;BME280_temperature;BME280_humidity;BME280_pressure;Samples;Min_cycle;Max_cycle;Signal;HPM_P1;HPM_P2
2023/08/31 00:02:24;;;;;;;3.67;2.30;;;;;;;13.29;100.00;149440.56;5010981;28;20806;-65
2023/08/31 00:04:53;;;;;;;2.70;1.87;;;;;;;13.33;100.00;149448.06;5008205;28;20239;-65
2023/08/31 00:07:22;;;;;;;6.30;2.53;;;;;;;13.32;100.00;149445.56;5013448;28;20288;-65
2023/08/31 00:09:48;;;;;;;4.00;2.20;;;;;;;13.48;100.00;149484.31;5012621;28;23602;-65
2023/08/31 00:12:15;;;;;;;6.77;2.30;;;;;;;13.44;100.00;149475.56;5014917;28;20224;-65
2023/08/31 00:14:42;;;;;;;6.40;2.40;;;;;;;13.41;100.00;149469.34;5008668;28;20244;-65
2023/08/31 00:17:08;;;;;;;5.90;2.30;;;;;;;13.42;100.00;149471.84;5013945;28;20344;-65
2023/08/31 00:19:35;;;;;;;8.23;2.20;;;;;;;13.44;100.00;149475.56;5012652;28;20220;-65
2023/08/31 00:22:02;;;;;;;5.37;2.27;;;;;;;13.42;100.00;149470.56;5013060;28;20252;-65
2023/08/31 00:24:31;;;;;;;6.40;2.27;;;;;;;13.42;100.00;149471.84;5012540;28;20771;-65
2023/08/31 00:26:58;;;;;;;5.77;2.40;;;;;;;13.41;100.00;149469.34;5011912;28;20694;-65
2023/08/31 00:29:25;;;;;;;4.40;2.50;;;;;;;13.43;100.00;149473.06;5015291;28;20297;-65
2023/08/31 00:31:53;;;;;;;7.00;2.73;;;;;;;13.40;100.00;149466.78;5010516;28;20683;-65
2023/08/31 00:34:20;;;;;;;6.63;2.80;;;;;;;13.33;100.00;149448.06;5010761;28;20716;-65
2023/08/31 00:36:47;;;;;;;4.13;2.40;;;;;;;13.24;100.00;149428.13;5008169;28;20239;-65
2023/08/31 00:39:14;;;;;;;7.57;2.53;;;;;;;13.24;100.00;149428.13;5001466;28;20224;-65
2023/08/31 00:41:45;;;;;;;6.00;2.70;;;;;;;13.23;100.00;149424.38;4989017;28;20231;-65
2023/08/31 00:44:12;;;;;;;6.17;3.00;;;;;;;13.18;100.00;149413.16;5009199;28;20232;-65
2023/08/31 00:46:39;;;;;;;7.63;2.60;;;;;;;13.07;100.00;149385.72;5006847;28;20231;-65
2023/08/31 00:49:05;;;;;;;5.30;2.23;;;;;;;13.05;100.00;149380.72;5014003;28;20259;-65
2023/08/31 00:51:33;;;;;;;7.03;2.47;;;;;;;13.03;100.00;149376.97;5007465;28;20301;-65
2023/08/31 00:54:00;;;;;;;5.07;1.97;;;;;;;12.92;100.00;149349.50;5016481;28;20228;-65
2023/08/31 00:56:30;;;;;;;6.37;2.90;;;;;;;12.98;100.00;149365.75;5009672;28;20594;-65
2023/08/31 00:58:58;;;;;;;4.13;2.10;;;;;;;13.06;100.00;149383.22;5013241;28;20257;-64
2023/08/31 01:01:33;;;;;;;4.20;2.63;;;;;;;13.04;100.00;149379.44;5013635;28;20582;-64
2023/08/31 01:04:10;;;;;;;8.90;2.70;;;;;;;13.06;100.00;149383.22;4992640;28;20228;-65
2023/08/31 01:06:48;;;;;;;5.10;2.70;;;;;;;13.13;100.00;149401.91;5009179;28;20777;-64
2023/08/31 01:09:20;;;;;;;3.37;2.30;;;;;;;13.23;100.00;149424.38;5012763;28;20706;-64
2023/08/31 01:11:57;;;;;;;8.43;2.67;;;;;;;13.26;100.00;149431.84;5012984;28;20310;-64
2023/08/31 01:14:31;;;;;;;5.07;2.63;;;;;;;13.37;100.00;149458.03;5000264;28;20216;-64
2023/08/31 01:17:00;;;;;;;6.87;2.50;;;;;;;13.41;100.00;149468.00;5009634;28;20226;-64
2023/08/31 01:19:40;;;;;;;5.20;2.70;;;;;;;13.45;100.00;149476.81;5011538;28;20224;-64
2023/08/31 01:22:12;;;;;;;5.20;2.60;;;;;;;13.47;100.00;149481.81;4992554;28;20246;-64
2023/08/31 01:24:41;;;;;;;5.20;2.60;;;;;;;13.41;100.00;149469.34;5005901;28;20216;-64
2023/08/31 01:27:08;;;;;;;8.13;2.53;;;;;;;13.41;100.00;149468.00;5010705;28;20236;-64
2023/08/31 01:29:35;;;;;;;9.00;2.47;;;;;;;13.38;100.00;149461.81;4993684;28;20336;-64
2023/08/31 01:32:06;;;;;;;4.93;2.60;;;;;;;13.40;100.00;149465.53;5012674;28;20600;-64
2023/08/31 01:34:33;;;;;;;8.47;2.53;;;;;;;13.40;100.00;149466.78;5008309;28;20211;-64
2023/08/31 01:37:03;;;;;;;7.63;2.80;;;;;;;13.43;100.00;149474.31;5012879;28;20233;-64
2023/08/31 01:39:34;;;;;;;7.13;2.67;;;;;;;13.40;100.00;149466.78;5008776;28;20259;-64
2023/08/31 01:42:06;;;;;;;6.17;2.77;;;;;;;13.40;100.00;149466.78;4997773;28;20305;-64
2023/08/31 01:44:37;;;;;;;6.23;2.33;;;;;;;13.43;100.00;149473.06;5008180;28;20220;-64
2023/08/31 01:47:06;;;;;;;7.20;2.30;;;;;;;13.42;100.00;149471.84;4996567;28;20630;-64
2023/08/31 01:49:37;;;;;;;3.97;2.30;;;;;;;13.38;100.00;149461.81;4997580;28;21023;-64
2023/08/31 01:52:04;;;;;;;10.63;2.33;;;;;;;13.42;100.00;149470.56;5010020;28;20646;-64
2023/08/31 01:54:31;;;;;;;6.77;2.40;;;;;;;13.45;100.00;149476.81;4992437;28;20243;-64
2023/08/31 01:56:59;;;;;;;6.17;2.97;;;;;;;13.49;100.00;149488.03;5000550;28;20239;-64
2023/08/31 01:59:27;;;;;;;6.20;2.90;;;;;;;13.51;100.00;149491.78;5015404;28;20724;-64
2023/08/31 02:01:55;;;;;;;6.63;2.40;;;;;;;13.55;100.00;149501.78;4998151;28;20239;-64
2023/08/31 02:04:22;;;;;;;4.87;2.50;;;;;;;13.57;100.00;149508.00;5009848;28;20228;-64
2023/08/31 02:06:49;;;;;;;5.33;2.20;;;;;;;13.57;100.00;149508.00;5012854;28;20252;-64
2023/08/31 02:09:16;;;;;;;6.60;2.67;;;;;;;13.56;100.00;149504.28;5015322;28;20806;-64
2023/08/31 02:11:42;;;;;;;3.53;2.33;;;;;;;13.58;100.00;149510.50;5013173;28;20275;-63
2023/08/31 02:14:09;;;;;;;6.72;2.75;;;;;;;13.56;100.00;149505.50;5013581;28;20799;-63
2023/08/31 02:16:37;;;;;;;6.23;2.30;;;;;;;13.62;100.00;149519.25;5014773;28;20759;-64
2023/08/31 02:19:03;;;;;;;4.63;2.70;;;;;;;13.63;100.00;149520.47;5014926;28;20251;-63
2023/08/31 02:21:33;;;;;;;7.40;3.00;;;;;;;13.62;100.00;149519.25;5010922;28;20690;-64
2023/08/31 02:23:59;;;;;;;6.20;2.40;;;;;;;13.60;100.00;149514.25;5013363;28;20618;-63
2023/08/31 02:26:26;;;;;;;4.53;2.30;;;;;;;13.60;100.00;149513.00;5014424;28;20227;-64
2023/08/31 02:28:52;;;;;;;7.37;2.50;;;;;;;13.57;100.00;149506.78;5013489;28;20239;-63
2023/08/31 02:31:19;;;;;;;4.37;2.30;;;;;;;13.57;100.00;149508.00;5015920;28;20626;-63
2023/08/31 02:33:48;;;;;;;5.17;2.50;;;;;;;13.63;100.00;149520.47;5010821;28;20274;-64
2023/08/31 02:36:15;;;;;;;7.03;2.40;;;;;;;13.68;100.00;149534.22;5001800;28;20231;-64
2023/08/31 02:38:43;;;;;;;3.93;2.10;;;;;;;13.68;100.00;149534.22;5011349;28;20242;-63
2023/08/31 02:41:09;;;;;;;7.13;2.33;;;;;;;13.64;100.00;149524.25;5000072;28;20236;-63
2023/08/31 02:43:37;;;;;;;8.63;2.60;;;;;;;13.69;100.00;149536.72;5009416;28;20687;-63
2023/08/31 02:46:04;;;;;;;6.43;2.57;;;;;;;13.68;100.00;149532.97;5016904;28;20224;-64
2023/08/31 02:48:31;;;;;;;7.10;2.87;;;;;;;13.63;100.00;149521.75;5009710;28;20219;-63
2023/08/31 02:51:00;;;;;;;4.27;2.17;;;;;;;13.65;100.00;149526.75;5016481;28;20572;-64
2023/08/31 02:53:27;;;;;;;6.00;2.80;;;;;;;13.67;100.00;149530.47;5013058;28;20299;-63
2023/08/31 02:55:54;;;;;;;5.40;2.80;;;;;;;13.68;100.00;149534.22;5017435;28;20231;-63
2023/08/31 02:58:21;;;;;;;5.57;2.20;;;;;;;13.70;100.00;149539.22;5003218;28;20232;-64
2023/08/31 03:00:48;;;;;;;8.87;2.37;;;;;;;13.73;100.00;149545.44;5012439;28;20791;-64
2023/08/31 03:03:16;;;;;;;8.73;2.60;;;;;;;13.71;100.00;149540.44;5019040;28;20587;-64
2023/08/31 03:05:45;;;;;;;5.70;2.10;;;;;;;13.70;100.00;149537.94;5009805;28;20224;-64
2023/08/31 03:08:13;;;;;;;4.37;2.13;;;;;;;13.68;100.00;149534.22;5002126;28;20248;-64
2023/08/31 03:10:41;;;;;;;6.20;2.47;;;;;;;13.67;100.00;149530.47;5011473;28;20228;-64
2023/08/31 03:13:07;;;;;;;4.33;2.20;;;;;;;13.69;100.00;149536.72;4994084;28;20216;-64
2023/08/31 03:15:34;;;;;;;5.72;2.58;;;;;;;13.72;100.00;149542.94;5014544;28;20464;-64
2023/08/31 03:18:01;;;;;;;4.90;2.50;;;;;;;13.76;100.00;149551.69;5018451;28;20275;-64
2023/08/31 03:20:28;;;;;;;4.83;2.33;;;;;;;13.78;100.00;149556.69;5012202;28;20214;-64
2023/08/31 03:22:54;;;;;;;3.97;2.23;;;;;;;13.79;100.00;149560.41;5017290;28;20260;-64
2023/08/31 03:25:22;;;;;;;4.37;2.47;;;;;;;13.75;100.00;149550.44;5010258;28;20243;-64
2023/08/31 03:27:49;;;;;;;5.93;2.33;;;;;;;13.68;100.00;149532.97;5011580;28;20334;-64
2023/08/31 03:32:57;;;;;;;7.23;2.57;;;;;;;13.60;100.00;149514.25;5043757;22;20226;-64
2023/08/31 03:35:26;;;;;;;5.80;2.60;;;;;;;13.63;100.00;149521.75;4981655;28;20225;-64
2023/08/31 03:37:54;;;;;;;6.80;2.57;;;;;;;13.57;100.00;149508.00;4978802;28;20237;-63
2023/08/31 03:40:23;;;;;;;8.43;2.90;;;;;;;13.56;100.00;149505.50;4979133;28;20228;-63
2023/08/31 03:42:52;;;;;;;2.80;2.13;;;;;;;13.60;100.00;149514.25;4993685;28;20241;-64
2023/08/31 03:45:19;;;;;;;7.07;2.87;;;;;;;13.59;100.00;149511.75;4993825;28;20326;-64
2023/08/31 03:47:46;;;;;;;5.73;2.93;;;;;;;13.61;100.00;149515.50;4976857;28;20251;-64
2023/08/31 03:50:13;;;;;;;7.23;2.50;;;;;;;13.59;100.00;149511.75;4981531;28;20220;-64
2023/08/31 03:52:40;;;;;;;8.83;2.37;;;;;;;13.60;100.00;149513.00;4992717;28;20323;-64
2023/08/31 03:55:07;;;;;;;4.33;2.60;;;;;;;13.58;100.00;149510.50;4976772;28;20224;-64
2023/08/31 03:57:36;;;;;;;7.37;2.43;;;;;;;13.52;100.00;149494.28;4992918;28;20230;-64
2023/08/31 04:00:13;;;;;;;4.37;2.60;;;;;;;13.53;100.00;149496.78;4995809;28;20376;-64
2023/08/31 04:02:43;;;;;;;14.03;2.60;;;;;;;13.49;100.00;149486.81;4993865;28;20248;-64
2023/08/31 04:05:10;;;;;;;5.43;2.53;;;;;;;13.49;100.00;149486.81;4973069;28;20220;-64
2023/08/31 04:07:37;;;;;;;6.03;2.60;;;;;;;13.47;100.00;149483.03;4976922;28;20687;-64
2023/08/31 04:10:04;;;;;;;7.00;2.70;;;;;;;13.44;100.00;149475.56;4994845;28;20247;-64
2023/08/31 04:12:31;;;;;;;5.90;2.50;;;;;;;13.44;100.00;149475.56;4977879;28;20282;-65
2023/08/31 04:15:01;;;;;;;8.33;2.60;;;;;;;13.41;100.00;149469.34;4994492;28;20244;-64
2023/08/31 04:17:27;;;;;;;4.27;2.47;;;;;;;13.35;100.00;149453.03;4973368;28;20239;-64
2023/08/31 04:19:54;;;;;;;6.07;2.73;;;;;;;13.27;100.00;149434.34;4978918;28;20237;-64
2023/08/31 04:22:21;;;;;;;7.10;2.70;;;;;;;13.22;100.00;149421.88;4998280;28;20250;-64
2023/08/31 04:24:47;;;;;;;5.30;2.03;;;;;;;13.18;100.00;149413.16;4995550;28;20780;-64
2023/08/31 04:27:14;;;;;;;4.97;3.03;;;;;;;13.18;100.00;149413.16;4998654;28;20247;-64
2023/08/31 04:29:41;;;;;;;6.60;2.23;;;;;;;13.17;100.00;149409.41;4994337;28;20235;-64
2023/08/31 04:32:09;;;;;;;7.37;3.47;;;;;;;13.17;100.00;149410.66;4996487;28;20243;-64
2023/08/31 04:34:35;;;;;;;4.57;2.20;;;;;;;13.18;100.00;149413.16;4997021;28;20238;-64
2023/08/31 04:37:02;;;;;;;6.80;2.20;;;;;;;13.22;100.00;149421.88;4996780;28;20224;-64
2023/08/31 04:39:28;;;;;;;7.47;2.27;;;;;;;13.22;100.00;149421.88;4996707;28;20237;-64
2023/08/31 04:41:55;;;;;;;7.57;2.67;;;;;;;13.25;100.00;149430.59;4994825;28;20241;-64
2023/08/31 04:44:22;;;;;;;5.23;3.30;;;;;;;13.28;100.00;149438.06;4996876;28;20587;-64
2023/08/31 04:46:48;;;;;;;10.17;3.10;;;;;;;13.29;100.00;149440.56;4992566;28;21914;-64
2023/08/31 04:49:17;;;;;;;4.53;2.67;;;;;;;13.27;100.00;149435.56;4982686;28;20216;-64
2023/08/31 04:51:45;;;;;;;6.13;2.60;;;;;;;13.26;100.00;149433.09;4995945;28;20241;-64
2023/08/31 04:54:12;;;;;;;9.70;2.70;;;;;;;13.24;100.00;149428.13;4998008;28;20235;-64
2023/08/31 04:56:38;;;;;;;10.67;2.57;;;;;;;13.26;100.00;149433.09;4994841;28;20256;-64
2023/08/31 04:59:05;;;;;;;3.50;2.43;;;;;;;13.28;100.00;149438.06;4997134;28;20698;-64
2023/08/31 05:01:33;;;;;;;8.17;2.53;;;;;;;13.27;100.00;149435.56;4993537;28;20340;-64
2023/08/31 05:03:59;;;;;;;8.07;2.67;;;;;;;13.33;100.00;149448.06;4996959;28;20239;-65
2023/08/31 05:06:31;;;;;;;5.43;2.87;;;;;;;13.36;100.00;149456.81;4992918;28;20599;-64
2023/08/31 05:08:58;;;;;;;7.57;2.67;;;;;;;13.47;100.00;149481.81;4992423;28;20226;-64
2023/08/31 05:11:25;;;;;;;4.30;2.03;;;;;;;13.47;100.00;149481.81;4997198;28;20772;-64
2023/08/31 05:13:52;;;;;;;6.93;2.97;;;;;;;13.51;100.00;149493.03;4993341;28;20237;-64
2023/08/31 05:16:18;;;;;;;4.67;2.37;;;;;;;13.53;100.00;149496.78;4997312;28;20731;-64
2023/08/31 05:18:45;;;;;;;6.03;3.00;;;;;;;13.54;100.00;149500.50;4992197;28;20236;-64
2023/08/31 05:21:11;;;;;;;7.43;2.90;;;;;;;13.60;100.00;149514.25;4995122;28;20235;-63
2023/08/31 05:23:39;;;;;;;7.17;2.57;;;;;;;13.63;100.00;149520.47;4994985;28;20225;-64
2023/08/31 05:26:06;;;;;;;6.67;2.30;;;;;;;13.64;100.00;149522.97;4996781;28;20229;-64
2023/08/31 05:28:33;;;;;;;5.57;2.57;;;;;;;13.68;100.00;149534.22;4993240;28;20232;-64
2023/08/31 05:31:02;;;;;;;6.60;2.73;;;;;;;13.71;100.00;149541.72;4997308;28;20217;-64
2023/08/31 05:33:33;;;;;;;5.13;2.23;;;;;;;13.75;100.00;149550.44;4995520;28;20272;-64
2023/08/31 05:36:01;;;;;;;3.53;2.57;;;;;;;13.79;100.00;149560.41;4996505;28;20228;-64
2023/08/31 05:38:28;;;;;;;5.60;2.40;;;;;;;13.83;100.00;149570.41;4995702;28;20225;-64
2023/08/31 05:41:04;;;;;;;7.73;2.70;;;;;;;13.87;100.00;149580.38;4994800;28;20317;-64
2023/08/31 05:43:31;;;;;;;8.07;2.73;;;;;;;13.87;100.00;149579.13;4995367;28;20227;-64
2023/08/31 05:45:57;;;;;;;8.33;2.73;;;;;;;13.94;100.00;149595.38;5001821;28;20233;-64
2023/08/31 05:48:24;;;;;;;4.90;2.33;;;;;;;13.96;100.00;149600.38;4999048;28;20695;-64
2023/08/31 05:50:50;;;;;;;3.90;2.80;;;;;;;13.89;100.00;149584.09;4999375;28;20229;-64
2023/08/31 05:53:17;;;;;;;5.47;2.93;;;;;;;13.98;100.00;149605.34;5001465;28;20686;-64
2023/08/31 05:55:43;;;;;;;7.47;2.73;;;;;;;13.94;100.00;149595.38;4998934;28;20213;-64
2023/08/31 05:58:11;;;;;;;6.67;2.57;;;;;;;14.05;100.00;149622.81;5000100;28;20233;-64
2023/08/31 06:00:38;;;;;;;11.30;2.87;;;;;;;14.13;100.00;149642.81;4996423;28;20236;-64
2023/08/31 06:03:06;;;;;;;5.77;2.47;;;;;;;14.17;100.00;149652.78;5000960;28;20298;-64
2023/08/31 06:05:32;;;;;;;7.90;2.97;;;;;;;14.22;100.00;149662.78;4997015;28;20724;-65
2023/08/31 06:07:59;;;;;;;6.83;2.83;;;;;;;14.25;100.00;149671.50;5000136;28;20220;-65
2023/08/31 06:10:26;;;;;;;6.33;2.87;;;;;;;14.29;100.00;149681.47;4999154;28;20228;-64
2023/08/31 06:12:52;;;;;;;9.47;2.73;;;;;;;14.35;100.00;149695.19;4996975;28;20241;-64
2023/08/31 06:15:20;;;;;;;7.70;2.97;;;;;;;14.32;100.00;149687.69;5000860;28;20587;-64
2023/08/31 06:17:47;;;;;;;6.13;2.50;;;;;;;14.44;100.00;149716.44;4995280;28;20247;-65
2023/08/31 06:20:14;;;;;;;8.93;3.03;;;;;;;14.26;100.00;149674.00;4999971;28;20252;-64
2023/08/31 06:22:40;;;;;;;5.53;2.27;;;;;;;14.32;99.27;149688.97;4995992;28;20244;-65
2023/08/31 06:25:08;;;;;;;7.97;2.70;;;;;;;14.36;95.53;149697.69;4997762;28;20223;-65
2023/08/31 06:27:35;;;;;;;5.73;2.23;;;;;;;14.31;92.74;149686.47;4998888;28;20772;-64
2023/08/31 06:30:03;;;;;;;5.80;2.33;;;;;;;14.43;92.28;149713.94;4999344;28;20299;-64
2023/08/31 06:32:31;;;;;;;9.33;2.33;;;;;;;14.35;88.86;149693.97;4995696;28;20239;-65
2023/08/31 06:34:58;;;;;;;4.50;1.80;;;;;;;14.41;87.26;149708.94;5000348;28;20725;-65
2023/08/31 06:37:24;;;;;;;6.10;2.37;;;;;;;14.50;87.90;149730.16;5000016;28;20247;-64
2023/08/31 06:39:51;;;;;;;4.50;2.17;;;;;;;14.52;85.13;149735.16;4998521;28;20247;-64
2023/08/31 06:42:18;;;;;;;5.80;2.17;;;;;;;14.54;86.21;149741.41;4999961;28;20214;-65
2023/08/31 06:44:44;;;;;;;9.23;2.10;;;;;;;14.63;83.76;149761.41;4978919;28;20237;-64
2023/08/31 06:47:11;;;;;;;5.70;2.10;;;;;;;14.58;84.67;149751.41;4995785;28;20225;-65
2023/08/31 06:49:39;;;;;;;9.83;2.23;;;;;;;14.60;83.07;149756.41;4997729;28;20223;-65
2023/08/31 06:52:07;;;;;;;8.20;2.27;;;;;;;14.59;83.30;149753.91;4999787;28;20683;-64
2023/08/31 06:54:34;;;;;;;7.43;2.13;;;;;;;14.76;78.73;149793.91;4995335;28;20379;-64
2023/08/31 06:57:01;;;;;;;5.43;2.30;;;;;;;15.02;82.32;149856.31;4998170;28;20562;-64
2023/08/31 06:59:27;;;;;;;10.93;3.00;;;;;;;15.23;79.55;149907.56;4999004;28;20227;-65
2023/08/31 07:01:54;;;;;;;5.97;1.90;;;;;;;15.45;78.79;149959.97;4996081;28;20240;-65
2023/08/31 07:04:20;;;;;;;4.27;2.30;;;;;;;15.30;73.85;149925.03;4998301;28;20225;-65
2023/08/31 07:06:48;;;;;;;9.30;1.97;;;;;;;15.50;70.87;149973.75;4992708;28;20226;-65
2023/08/31 07:09:15;;;;;;;5.40;2.23;;;;;;;15.44;71.23;149958.75;4999637;28;20233;-64
2023/08/31 07:11:41;;;;;;;5.13;1.80;;;;;;;15.24;67.65;149908.78;4994421;28;20237;-64
2023/08/31 07:14:08;;;;;;;4.50;1.93;;;;;;;15.27;71.42;149916.28;4997189;28;20234;-65
2023/08/31 07:16:34;;;;;;;6.97;1.80;;;;;;;15.30;69.26;149925.03;4992810;28;20224;-65
2023/08/31 07:19:01;;;;;;;3.43;2.27;;;;;;;15.07;71.74;149867.59;4998054;28;20233;-65
2023/08/31 07:21:33;;;;;;;3.50;1.70;;;;;;;15.13;71.71;149883.81;4997341;28;20226;-65
2023/08/31 07:24:08;;;;;;;4.37;1.70;;;;;;;15.16;64.08;149891.28;5000289;28;20225;-65
2023/08/31 07:26:35;;;;;;;7.77;2.20;;;;;;;15.27;63.25;149916.28;4993911;28;20228;-65
2023/08/31 07:29:04;;;;;;;6.13;2.20;;;;;;;15.45;62.60;149961.25;5001281;28;20240;-65
2023/08/31 07:31:33;;;;;;;7.53;2.30;;;;;;;15.70;62.74;150019.97;4991942;28;20636;-65
2023/08/31 07:34:00;;;;;;;8.30;1.80;;;;;;;15.73;62.75;150027.47;4996179;28;20222;-65
2023/08/31 07:36:33;;;;;;;6.10;2.00;;;;;;;15.85;63.05;150056.22;4995825;28;20647;-65
2023/08/31 07:39:01;;;;;;;4.33;1.77;;;;;;;16.07;62.13;150111.22;4995591;28;20221;-65
2023/08/31 07:41:32;;;;;;;8.40;1.70;;;;;;;15.85;61.04;150057.44;4994593;28;20581;-65
2023/08/31 07:43:59;;;;;;;5.10;2.00;;;;;;;16.14;61.92;150127.50;4999073;28;20224;-65
2023/08/31 07:46:26;;;;;;;3.00;2.23;;;;;;;16.29;62.01;150162.50;4997875;28;20257;-65
2023/08/31 07:48:52;;;;;;;5.20;1.67;;;;;;;16.47;62.72;150206.22;4992852;28;20249;-65
2023/08/31 07:51:22;;;;;;;7.63;2.20;;;;;;;16.44;62.22;150199.94;4998820;28;20227;-65
2023/08/31 07:53:49;;;;;;;4.60;1.73;;;;;;;16.80;62.65;150287.47;4995333;28;21264;-64
2023/08/31 07:56:17;;;;;;;4.00;1.93;;;;;;;17.24;61.97;150392.56;4999422;28;20234;-65
2023/08/31 07:58:44;;;;;;;4.93;2.07;;;;;;;17.54;57.83;150465.06;4992507;28;20226;-65
2023/08/31 08:01:10;;;;;;;6.50;2.10;;;;;;;17.66;59.40;150493.88;4995268;28;20235;-65
2023/08/31 08:03:37;;;;;;;5.43;2.13;;;;;;;17.74;57.22;150512.59;4994570;28;20272;-65
2023/08/31 08:06:04;;;;;;;3.93;1.50;;;;;;;17.80;57.68;150528.91;4998659;28;20234;-65
2023/08/31 08:08:30;;;;;;;5.20;1.80;;;;;;;17.53;59.41;150463.84;4996022;28;20246;-65
2023/08/31 08:10:57;;;;;;;6.10;1.63;;;;;;;17.51;58.24;150458.84;4998190;28;20242;-65
2023/08/31 08:13:25;;;;;;;5.77;2.37;;;;;;;17.38;58.88;150426.31;4999881;28;20252;-65
2023/08/31 08:15:52;;;;;;;4.80;1.90;;;;;;;17.03;62.59;150341.25;4992775;28;20327;-65
2023/08/31 08:18:18;;;;;;;4.97;1.80;;;;;;;16.82;62.65;150291.25;4997281;28;20290;-65
2023/08/31 08:20:49;;;;;;;8.20;2.03;;;;;;;17.02;61.57;150338.75;4995616;28;20245;-65
2023/08/31 08:23:15;;;;;;;6.77;2.30;;;;;;;16.85;63.79;150298.75;5000167;28;20238;-65
2023/08/31 08:25:42;;;;;;;5.23;1.70;;;;;;;17.16;63.25;150372.56;4992417;28;20233;-64
2023/08/31 08:28:09;;;;;;;8.13;2.30;;;;;;;17.11;62.30;150362.53;4997363;28;20237;-65
2023/08/31 08:30:37;;;;;;;4.30;1.90;;;;;;;17.17;62.59;150375.06;4991287;28;20261;-65
2023/08/31 08:33:04;;;;;;;5.67;2.13;;;;;;;17.10;63.64;150360.03;4978247;28;20222;-65
2023/08/31 08:35:30;;;;;;;3.93;1.90;;;;;;;17.15;64.32;150371.28;4994029;28;20283;-65
2023/08/31 08:37:57;;;;;;;6.13;2.00;;;;;;;17.02;66.12;150338.75;4998532;28;20238;-65
2023/08/31 08:40:25;;;;;;;6.47;2.00;;;;;;;17.09;68.95;150357.53;4995449;28;20224;-65
2023/08/31 08:42:54;;;;;;;6.17;1.87;;;;;;;17.37;68.32;150425.09;4994056;28;20227;-64
2023/08/31 08:45:25;;;;;;;5.27;1.47;;;;;;;17.83;64.50;150535.13;4998308;28;20226;-65
2023/08/31 08:47:53;;;;;;;7.63;1.90;;;;;;;17.71;64.68;150506.38;4985927;28;20231;-65
2023/08/31 08:50:21;;;;;;;5.70;1.90;;;;;;;18.16;62.98;150615.25;4996349;28;20232;-65
2023/08/31 08:52:48;;;;;;;3.63;1.90;;;;;;;18.12;64.04;150605.25;4991262;28;20227;-65
2023/08/31 08:55:16;;;;;;;4.83;1.70;;;;;;;18.19;61.09;150621.50;4997690;28;20224;-65
2023/08/31 08:57:42;;;;;;;5.70;2.03;;;;;;;18.05;61.17;150588.97;4993118;28;20240;-65
2023/08/31 09:00:10;;;;;;;7.17;2.47;;;;;;;17.49;61.55;150452.59;4997213;28;20232;-64
2023/08/31 09:02:37;;;;;;;5.10;1.53;;;;;;;17.77;62.96;150521.38;4989545;28;20235;-65
2023/08/31 09:05:05;;;;;;;3.50;2.30;;;;;;;18.02;61.31;150580.22;4995704;28;20232;-65
2023/08/31 09:07:36;;;;;;;3.00;1.80;;;;;;;17.75;62.38;150515.13;4993775;28;20227;-65
2023/08/31 09:10:03;;;;;;;5.33;1.60;;;;;;;17.34;65.10;150417.56;4988685;28;20802;-65
2023/08/31 09:12:30;;;;;;;5.30;2.20;;;;;;;16.84;66.83;150296.25;4966683;28;20226;-66
2023/08/31 09:15:01;;;;;;;7.53;1.87;;;;;;;17.10;67.42;150360.03;4994670;28;20266;-65
2023/08/31 09:17:38;;;;;;;16.37;2.27;;;;;;;16.98;67.69;150330.03;4994723;28;20595;-65
2023/08/31 09:20:09;;;;;;;8.00;2.10;;;;;;;17.24;67.79;150392.56;4996094;28;20234;-65
2023/08/31 09:22:35;;;;;;;12.57;2.33;;;;;;;17.18;67.32;150378.78;4993473;28;20231;-65
2023/08/31 09:25:02;;;;;;;5.77;2.33;;;;;;;17.00;67.42;150335.03;4993275;28;20304;-65
2023/08/31 09:27:30;;;;;;;5.60;2.03;;;;;;;17.35;65.75;150420.09;4995489;28;20229;-65
2023/08/31 09:29:57;;;;;;;6.60;2.30;;;;;;;17.69;64.22;150502.59;4995020;28;20231;-65
2023/08/31 09:32:24;;;;;;;6.43;1.80;;;;;;;17.91;64.63;150555.16;4995764;28;20241;-66
2023/08/31 09:34:51;;;;;;;7.47;2.07;;;;;;;17.99;62.17;150573.94;4993750;28;20224;-65
2023/08/31 09:37:18;;;;;;;9.00;2.40;;;;;;;17.74;60.80;150513.88;4994910;28;20219;-66
2023/08/31 09:39:45;;;;;;;5.47;2.00;;;;;;;17.98;62.57;150571.44;4979637;28;20236;-65
2023/08/31 09:42:12;;;;;;;5.83;2.00;;;;;;;18.36;59.92;150662.81;4986761;28;20307;-65
2023/08/31 09:44:42;;;;;;;9.20;2.17;;;;;;;18.12;60.62;150606.47;4960887;28;20595;-65
2023/08/31 09:47:09;;;;;;;6.53;2.13;;;;;;;18.33;61.77;150655.31;4994627;28;20318;-65
2023/08/31 09:49:36;;;;;;;9.10;2.10;;;;;;;18.23;60.26;150631.50;4984622;28;20237;-65
2023/08/31 09:52:04;;;;;;;7.13;1.77;;;;;;;18.21;59.40;150626.50;4995051;28;20596;-65
2023/08/31 09:54:35;;;;;;;6.00;1.80;;;;;;;18.51;60.23;150699.09;4996011;28;20318;-65
2023/08/31 09:57:03;;;;;;;11.37;2.00;;;;;;;18.23;62.10;150631.50;4996514;28;20314;-65
2023/08/31 09:59:30;;;;;;;4.20;1.77;;;;;;;18.44;61.23;150682.84;4994111;28;20624;-65
2023/08/31 10:01:57;;;;;;;4.93;1.87;;;;;;;18.86;60.46;150785.44;4984557;28;20235;-65
2023/08/31 10:04:24;;;;;;;5.17;2.17;;;;;;;19.19;59.73;150864.34;4995475;28;20234;-65
2023/08/31 10:06:53;;;;;;;9.60;2.30;;;;;;;18.80;57.74;150769.19;4993468;28;20664;-66
2023/08/31 10:09:20;;;;;;;8.57;2.50;;;;;;;18.38;60.34;150669.06;4995089;28;20231;-65
2023/08/31 10:11:48;;;;;;;3.80;1.93;;;;;;;18.49;62.63;150694.09;4966124;28;20325;-66
2023/08/31 10:14:17;;;;;;;6.57;1.97;;;;;;;18.79;61.80;150766.69;4980167;28;20715;-65
2023/08/31 10:16:45;;;;;;;7.87;2.00;;;;;;;18.98;58.18;150813.03;4984635;28;20240;-65
2023/08/31 10:19:12;;;;;;;5.93;2.07;;;;;;;19.02;58.54;150824.31;4997774;28;20709;-65
2023/08/31 10:21:40;;;;;;;6.17;2.03;;;;;;;19.18;57.40;150863.13;4991143;28;21672;-65
2023/08/31 10:24:07;;;;;;;4.57;1.80;;;;;;;19.42;57.44;150920.72;4995896;28;20242;-65
2023/08/31 10:26:34;;;;;;;4.20;1.70;;;;;;;19.14;56.29;150851.81;4991521;28;20228;-65
2023/08/31 10:29:04;;;;;;;4.27;1.93;;;;;;;19.18;60.86;150861.84;4998629;28;20228;-65
2023/08/31 10:31:34;;;;;;;5.60;2.00;;;;;;;19.05;59.73;150829.34;4986394;28;20738;-65
2023/08/31 10:34:03;;;;;;;3.73;2.10;;;;;;;18.64;60.51;150730.38;4974424;28;20232;-65
2023/08/31 10:36:40;;;;;;;4.80;2.03;;;;;;;18.20;63.49;150624.00;4987923;28;20221;-65
2023/08/31 10:39:12;;;;;;;4.83;1.90;;;;;;;17.87;66.96;150545.13;4992428;28;20216;-65
2023/08/31 10:41:39;;;;;;;5.30;2.17;;;;;;;18.03;65.12;150583.94;4995703;28;20720;-65
2023/08/31 10:44:20;;;;;;;8.60;2.03;;;;;;;18.15;62.86;150614.00;4981928;28;20227;-65
2023/08/31 10:46:47;;;;;;;5.87;1.90;;;;;;;17.96;65.44;150567.66;4988194;28;20244;-65
2023/08/31 10:49:16;;;;;;;6.10;2.40;;;;;;;18.35;63.67;150660.31;5001236;28;20226;-65
2023/08/31 10:51:45;;;;;;;6.20;2.13;;;;;;;19.13;60.53;150849.31;4994559;28;20228;-65
2023/08/31 10:54:14;;;;;;;5.93;1.70;;;;;;;19.29;61.29;150889.38;4998238;28;20719;-66
2023/08/31 10:57:03;;;;;;;7.53;2.10;;;;;;;19.54;57.43;150948.28;4992541;28;20268;-66
2023/08/31 10:59:47;;;;;;;5.87;1.60;;;;;;;19.94;54.78;151044.75;4996350;28;20216;-65
2023/08/31 11:02:31;;;;;;;7.53;2.00;;;;;;;19.80;52.79;151012.13;4996518;28;20271;-65
2023/08/31 11:05:03;;;;;;;4.97;1.53;;;;;;;19.84;55.18;151022.16;4995140;28;20345;-65
2023/08/31 11:07:30;;;;;;;4.43;1.93;;;;;;;19.72;56.15;150993.31;4994593;28;20645;-65
2023/08/31 11:10:16;;;;;;;3.27;1.80;;;;;;;19.29;55.80;150888.16;4977579;28;20291;-65
2023/08/31 11:12:46;;;;;;;9.90;1.90;;;;;;;19.34;56.17;150900.69;4993090;28;20673;-65
2023/08/31 11:15:15;;;;;;;4.00;2.10;;;;;;;19.35;55.89;150903.19;4974578;28;20320;-65
2023/08/31 11:17:43;;;;;;;7.00;1.93;;;;;;;19.15;54.06;150854.34;4991803;28;20229;-66
2023/08/31 11:20:13;;;;;;;5.93;1.97;;;;;;;18.71;56.70;150749.16;5000505;28;20237;-65
2023/08/31 11:22:42;;;;;;;6.50;1.87;;;;;;;18.65;56.88;150734.13;4997082;28;20259;-65
2023/08/31 11:25:10;;;;;;;6.23;1.77;;;;;;;18.76;55.91;150760.41;4996782;28;20306;-63
2023/08/31 11:27:37;;;;;;;6.40;2.00;;;;;;;18.90;56.30;150794.22;4993925;28;20624;-64